createdAt,value
2023-09-02T00:00:38.508Z,2.17
2023-09-02T00:03:06.125Z,2.15
2023-09-02T00:05:33.745Z,2.33
2023-09-02T00:08:01.302Z,2.38
2023-09-02T00:10:28.891Z,2.22
2023-09-02T00:12:56.550Z,2.47
2023-09-02T00:15:24.145Z,2.88
2023-09-02T00:17:51.827Z,2.40
2023-09-02T00:20:21.421Z,2.55
2023-09-02T00:22:49.077Z,2.28
2023-09-02T00:25:16.674Z,2.35
2023-09-02T00:27:44.278Z,2.60
2023-09-02T00:30:12.114Z,2.42
2023-09-02T00:32:39.710Z,2.35
2023-09-02T00:35:07.469Z,2.72
2023-09-02T00:37:35.097Z,2.28
2023-09-02T00:40:02.912Z,2.63
2023-09-02T00:42:30.927Z,2.50
2023-09-02T00:44:58.488Z,2.78
2023-09-02T00:47:26.566Z,2.40
2023-09-02T00:49:54.445Z,2.28
2023-09-02T00:52:22.061Z,2.40
2023-09-02T00:54:49.700Z,2.75
2023-09-02T00:57:17.305Z,2.67
2023-09-02T00:59:44.949Z,2.70
2023-09-02T01:02:13.116Z,2.63
2023-09-02T01:04:40.716Z,2.95
2023-09-02T01:07:09.690Z,2.90
2023-09-02T01:09:37.453Z,3.10
2023-09-02T01:12:05.395Z,3.20
2023-09-02T01:14:33.932Z,3.05
2023-09-02T01:17:01.644Z,2.72
2023-09-02T01:19:30.364Z,2.58
2023-09-02T01:22:16.279Z,2.88
2023-09-02T01:25:00.372Z,2.67
2023-09-02T01:27:39.721Z,2.83
2023-09-02T01:30:13.662Z,2.60
2023-09-02T01:32:43.611Z,2.58
2023-09-02T01:35:13.988Z,2.60
2023-09-02T01:37:43.368Z,2.70
2023-09-02T01:40:13.050Z,2.63
2023-09-02T01:42:40.946Z,2.63
2023-09-02T01:45:09.604Z,2.45
2023-09-02T01:47:37.468Z,2.80
2023-09-02T01:50:06.449Z,2.67
2023-09-02T01:52:34.639Z,3.00
2023-09-02T01:55:02.280Z,2.70
2023-09-02T01:57:29.960Z,2.85
2023-09-02T01:59:57.620Z,3.10
2023-09-02T02:02:25.282Z,2.83
2023-09-02T02:04:54.811Z,2.85
2023-09-02T02:07:27.754Z,3.30
2023-09-02T02:09:59.878Z,2.72
2023-09-02T02:12:27.620Z,2.50
2023-09-02T02:14:55.411Z,2.78
2023-09-02T02:17:23.053Z,2.67
2023-09-02T02:19:50.746Z,2.72
2023-09-02T02:22:18.332Z,2.38
2023-09-02T02:24:45.885Z,2.90
2023-09-02T02:27:14.700Z,2.20
2023-09-02T02:29:42.316Z,2.80
2023-09-02T02:32:09.885Z,2.78
2023-09-02T02:34:37.513Z,2.80
2023-09-02T02:37:05.353Z,2.60
2023-09-02T02:39:32.918Z,3.10
2023-09-02T02:42:00.576Z,2.45
2023-09-02T02:44:28.154Z,2.67
2023-09-02T02:46:55.729Z,2.42
2023-09-02T02:49:23.294Z,2.53
2023-09-02T02:51:50.852Z,2.67
2023-09-02T02:54:18.491Z,2.30
2023-09-02T02:56:46.290Z,2.70
2023-09-02T02:59:13.913Z,2.58
2023-09-02T03:01:41.628Z,2.45
2023-09-02T03:04:10.038Z,2.45
2023-09-02T03:06:37.616Z,2.85
2023-09-02T03:09:07.040Z,2.50
2023-09-02T03:11:34.662Z,2.45
2023-09-02T03:14:04.222Z,2.80
2023-09-02T03:16:31.994Z,2.55
2023-09-02T03:19:00.481Z,2.50
2023-09-02T03:21:30.742Z,2.47
2023-09-02T03:23:58.470Z,3.03
2023-09-02T03:26:28.072Z,2.42
2023-09-02T03:28:56.925Z,2.50
2023-09-02T03:31:25.947Z,2.42
2023-09-02T03:33:55.091Z,2.42
2023-09-02T03:36:22.773Z,2.30
2023-09-02T03:38:50.523Z,2.58
2023-09-02T03:41:24.088Z,2.60
2023-09-02T03:43:51.712Z,2.70
2023-09-02T03:46:19.966Z,2.22
2023-09-02T03:48:50.629Z,2.42
2023-09-02T03:51:20.657Z,2.40
2023-09-02T03:53:53.716Z,2.33
2023-09-02T03:56:21.396Z,2.60
2023-09-02T03:58:49.037Z,2.80
2023-09-02T04:01:17.352Z,2.60
2023-09-02T04:03:46.730Z,2.35
2023-09-02T04:06:15.769Z,2.60
2023-09-02T04:08:44.505Z,2.47
2023-09-02T04:11:12.072Z,2.63
2023-09-02T04:13:39.714Z,2.47
2023-09-02T04:16:13.132Z,2.42
2023-09-02T04:18:41.332Z,2.28
2023-09-02T04:21:11.892Z,2.53
2023-09-02T04:23:42.934Z,2.22
2023-09-02T04:26:13.538Z,2.53
2023-09-02T04:28:41.114Z,2.47
2023-09-02T04:31:08.850Z,2.25
2023-09-02T04:33:37.850Z,2.70
2023-09-02T04:36:06.916Z,2.53
2023-09-02T04:38:39.280Z,2.20
2023-09-02T04:41:07.896Z,2.50
2023-09-02T04:43:36.308Z,2.30
2023-09-02T04:46:05.503Z,2.83
2023-09-02T04:48:38.345Z,2.30
2023-09-02T04:51:09.321Z,2.40
2023-09-02T04:53:37.772Z,2.15
2023-09-02T04:56:06.288Z,2.35
2023-09-02T04:58:36.292Z,2.28
2023-09-02T05:01:12.880Z,2.30
2023-09-02T05:03:48.898Z,2.40
2023-09-02T05:06:16.811Z,2.70
2023-09-02T05:08:46.735Z,2.78
2023-09-02T05:11:18.023Z,2.17
2023-09-02T05:13:45.609Z,2.50
2023-09-02T05:16:13.335Z,2.17
2023-09-02T05:18:41.000Z,2.53
2023-09-02T05:21:08.615Z,2.63
2023-09-02T05:23:36.208Z,2.20
2023-09-02T05:26:04.944Z,2.95
2023-09-02T05:28:32.822Z,2.70
2023-09-02T05:31:00.473Z,2.42
2023-09-02T05:33:28.079Z,2.33
2023-09-02T05:35:56.540Z,2.15
2023-09-02T05:38:24.220Z,2.20
2023-09-02T05:40:51.827Z,2.40
2023-09-02T05:43:20.507Z,2.40
2023-09-02T05:45:49.904Z,2.65
2023-09-02T05:48:18.037Z,2.63
2023-09-02T05:50:45.753Z,2.78
2023-09-02T05:53:13.528Z,2.33
2023-09-02T05:55:41.200Z,2.20
2023-09-02T05:58:08.760Z,2.40
2023-09-02T06:00:37.327Z,2.53
2023-09-02T06:03:05.181Z,2.80
2023-09-02T06:05:32.808Z,2.13
2023-09-02T06:08:00.408Z,2.35
2023-09-02T06:10:27.987Z,2.50
2023-09-02T06:12:55.621Z,2.55
2023-09-02T06:15:23.249Z,2.60
2023-09-02T06:17:50.872Z,2.30
2023-09-02T06:20:21.334Z,2.60
2023-09-02T06:22:49.009Z,2.63
2023-09-02T06:25:16.682Z,2.40
2023-09-02T06:27:44.265Z,2.70
2023-09-02T06:30:12.084Z,2.30
2023-09-02T06:32:39.683Z,2.35
2023-09-02T06:35:09.031Z,2.22
2023-09-02T06:37:36.598Z,2.53
2023-09-02T06:40:04.292Z,2.65
2023-09-02T06:42:31.864Z,2.25
2023-09-02T06:44:59.427Z,2.50
2023-09-02T06:47:27.116Z,2.42
2023-09-02T06:49:54.721Z,2.47
2023-09-02T06:52:22.295Z,1.88
2023-09-02T06:54:50.263Z,2.60
2023-09-02T06:57:17.937Z,2.42
2023-09-02T06:59:45.506Z,2.38
2023-09-02T07:02:13.098Z,2.35
2023-09-02T07:04:40.775Z,2.25
2023-09-02T07:07:08.422Z,2.10
2023-09-02T07:09:36.665Z,2.45
2023-09-02T07:12:04.351Z,2.45
2023-09-02T07:14:31.937Z,2.50
2023-09-02T07:16:59.882Z,2.35
2023-09-02T07:19:27.551Z,2.40
2023-09-02T07:21:58.036Z,2.20
2023-09-02T07:24:25.599Z,2.30
2023-09-02T07:26:53.228Z,2.35
2023-09-02T07:29:20.857Z,2.53
2023-09-02T07:31:48.528Z,2.30
2023-09-02T07:34:16.114Z,1.98
2023-09-02T07:36:44.068Z,2.00
2023-09-02T07:39:11.709Z,2.10
2023-09-02T07:41:39.298Z,2.33
2023-09-02T07:44:06.869Z,1.85
2023-09-02T07:46:34.496Z,2.00
2023-09-02T07:49:02.067Z,2.60
2023-09-02T07:51:29.711Z,1.98
2023-09-02T07:53:57.298Z,2.40
2023-09-02T07:56:24.912Z,2.17
2023-09-02T07:58:52.851Z,2.08
2023-09-02T08:01:22.137Z,2.40
2023-09-02T08:03:50.553Z,2.20
2023-09-02T08:06:18.126Z,2.05
2023-09-02T08:08:45.675Z,1.95
2023-09-02T08:11:17.642Z,2.38
2023-09-02T08:13:45.371Z,2.13
2023-09-02T08:16:13.012Z,2.28
2023-09-02T08:18:40.659Z,2.08
2023-09-02T08:21:11.816Z,2.10
2023-09-02T08:23:40.243Z,1.80
2023-09-02T08:26:12.300Z,2.13
2023-09-02T08:31:07.419Z,2.28
2023-09-02T08:33:36.882Z,2.60
2023-09-02T08:36:04.579Z,2.03
2023-09-02T08:38:33.205Z,1.90
2023-09-02T08:41:03.470Z,1.90
2023-09-02T08:43:31.210Z,3.08
2023-09-02T08:46:00.912Z,2.20
2023-09-02T08:48:31.710Z,2.08
2023-09-02T08:50:59.391Z,2.28
2023-09-02T08:53:27.824Z,2.13
2023-09-02T08:55:55.957Z,1.95
2023-09-02T08:58:24.200Z,2.00
2023-09-02T09:00:52.012Z,1.80
2023-09-02T09:03:20.833Z,2.10
2023-09-02T09:05:50.140Z,2.10
2023-09-02T09:08:17.912Z,2.03
2023-09-02T09:10:45.749Z,2.13
2023-09-02T09:13:14.652Z,2.40
2023-09-02T09:15:42.234Z,2.08
2023-09-02T09:18:12.896Z,1.98
2023-09-02T09:20:40.941Z,1.98
2023-09-02T09:23:09.133Z,2.03
2023-09-02T09:25:37.046Z,1.95
2023-09-02T09:28:11.079Z,1.85
2023-09-02T09:30:38.845Z,2.10
2023-09-02T09:33:06.998Z,1.67
2023-09-02T09:35:35.457Z,2.20
2023-09-02T09:38:03.549Z,2.20
2023-09-02T09:40:34.697Z,2.13
2023-09-02T09:43:03.305Z,1.85
2023-09-02T09:45:31.432Z,2.10
2023-09-02T09:48:00.394Z,1.98
2023-09-02T09:50:29.677Z,2.00
2023-09-02T09:53:02.916Z,1.70
2023-09-02T09:55:30.965Z,2.17
2023-09-02T09:57:59.029Z,1.90
2023-09-02T10:00:27.206Z,1.80
2023-09-02T10:02:55.841Z,1.83
2023-09-02T10:05:26.374Z,2.10
2023-09-02T10:08:00.404Z,2.00
2023-09-02T10:10:30.369Z,1.77
2023-09-02T10:12:59.597Z,2.00
2023-09-02T10:15:28.084Z,1.90
2023-09-02T10:17:57.291Z,1.70
2023-09-02T10:20:28.899Z,1.92
2023-09-02T10:23:02.897Z,2.00
2023-09-02T10:25:35.200Z,2.05
2023-09-02T10:28:02.834Z,2.20
2023-09-02T10:30:43.386Z,1.92
2023-09-02T10:33:18.714Z,1.90
2023-09-02T10:35:48.490Z,1.90
2023-09-02T10:38:19.244Z,2.10
2023-09-02T10:40:50.543Z,2.10
2023-09-02T10:43:18.499Z,1.80
2023-09-02T10:45:46.715Z,2.08
2023-09-02T10:48:14.636Z,2.10
2023-09-02T10:50:42.300Z,1.90
2023-09-02T10:53:14.680Z,2.38
2023-09-02T10:56:02.002Z,1.90
2023-09-02T10:58:29.655Z,2.13
2023-09-02T11:00:57.250Z,2.03
2023-09-02T11:03:46.844Z,1.90
2023-09-02T11:06:16.468Z,2.03
2023-09-02T11:08:47.569Z,2.22
2023-09-02T11:11:15.218Z,1.95
2023-09-02T11:14:03.020Z,2.17
2023-09-02T11:16:30.652Z,2.00
2023-09-02T11:18:58.553Z,2.17
2023-09-02T11:21:47.336Z,2.20
2023-09-02T11:24:14.879Z,1.90
2023-09-02T11:27:01.285Z,1.80
2023-09-02T11:29:29.812Z,1.88
2023-09-02T11:32:01.497Z,1.70
2023-09-02T11:34:29.642Z,2.25
2023-09-02T11:37:00.338Z,2.05
2023-09-02T11:39:28.831Z,2.00
2023-09-02T11:42:14.865Z,2.17
2023-09-02T11:44:51.624Z,2.20
2023-09-02T11:47:19.293Z,2.20
2023-09-02T11:49:46.948Z,1.90
2023-09-02T11:52:15.114Z,1.90
2023-09-02T11:54:47.308Z,2.08
2023-09-02T11:57:18.896Z,1.95
2023-09-02T12:02:18.310Z,1.88
2023-09-02T12:04:46.003Z,1.92
2023-09-02T12:07:13.705Z,2.03
2023-09-02T12:09:41.401Z,1.80
2023-09-02T12:12:09.104Z,2.17
2023-09-02T12:14:41.439Z,1.70
2023-09-02T12:17:09.423Z,1.88
2023-09-02T12:19:37.180Z,1.83
2023-09-02T12:22:04.904Z,1.63
2023-09-02T12:24:32.895Z,1.85
2023-09-02T12:27:01.196Z,1.85
2023-09-02T12:29:28.830Z,1.80
2023-09-02T12:31:57.072Z,1.70
2023-09-02T12:34:25.128Z,1.88
2023-09-02T12:36:52.788Z,1.75
2023-09-02T12:39:24.073Z,1.67
2023-09-02T12:41:51.814Z,1.48
2023-09-02T12:44:20.324Z,1.98
2023-09-02T12:46:48.332Z,2.28
2023-09-02T12:49:16.789Z,1.70
2023-09-02T12:51:44.644Z,1.80
2023-09-02T12:54:13.053Z,1.80
2023-09-02T12:56:40.684Z,1.60
2023-09-02T12:59:08.771Z,1.73
2023-09-02T13:01:37.443Z,1.90
2023-09-02T13:04:05.258Z,1.80
2023-09-02T13:06:32.964Z,1.67
2023-09-02T13:09:00.618Z,1.65
2023-09-02T13:11:28.636Z,1.70
2023-09-02T13:13:56.819Z,1.52
2023-09-02T13:16:26.035Z,1.70
2023-09-02T13:18:54.244Z,1.77
2023-09-02T13:21:21.940Z,1.80
2023-09-02T13:23:50.595Z,1.70
2023-09-02T13:26:21.285Z,1.50
2023-09-02T13:28:48.915Z,1.70
2023-09-02T13:31:16.889Z,1.92
2023-09-02T13:33:44.472Z,1.40
2023-09-02T13:36:13.979Z,1.65
2023-09-02T13:38:42.074Z,1.95
2023-09-02T13:41:11.148Z,1.70
2023-09-02T13:43:39.663Z,1.88
2023-09-02T13:46:08.571Z,1.75
2023-09-02T13:48:36.334Z,1.70
2023-09-02T13:51:06.038Z,1.90
2023-09-02T13:53:34.377Z,1.60
2023-09-02T13:56:02.512Z,1.70
2023-09-02T13:58:36.727Z,1.60
2023-09-02T14:01:05.139Z,1.90
2023-09-02T14:03:33.242Z,1.52
2023-09-02T14:06:02.632Z,1.50
2023-09-02T14:08:36.504Z,2.00
2023-09-02T14:11:04.615Z,1.67
2023-09-02T14:13:41.958Z,1.63
2023-09-02T14:16:09.927Z,1.80
2023-09-02T14:18:37.741Z,1.92
2023-09-02T14:21:05.331Z,1.70
2023-09-02T14:23:33.375Z,1.75
2023-09-02T14:26:01.203Z,1.70
2023-09-02T14:28:28.899Z,1.52
2023-09-02T14:30:57.406Z,1.73
2023-09-02T14:33:25.132Z,1.80
2023-09-02T14:35:52.710Z,1.77
2023-09-02T14:38:22.283Z,1.90
2023-09-02T14:40:50.087Z,1.75
2023-09-02T14:43:18.143Z,1.73
2023-09-02T14:45:46.201Z,1.73
2023-09-02T14:48:14.864Z,1.90
2023-09-02T14:50:42.797Z,3.63
2023-09-02T14:53:10.637Z,2.58
2023-09-02T14:55:38.721Z,2.55
2023-09-02T14:58:06.547Z,1.60
2023-09-02T15:00:34.184Z,1.58
2023-09-02T15:03:02.895Z,1.67
2023-09-02T15:05:32.158Z,1.67
2023-09-02T15:08:02.727Z,1.77
2023-09-02T15:10:30.902Z,1.70
2023-09-02T15:12:58.691Z,1.52
2023-09-02T15:15:28.824Z,1.80
2023-09-02T15:17:59.198Z,1.80
2023-09-02T15:20:27.955Z,1.40
2023-09-02T15:22:57.143Z,1.70
2023-09-02T15:25:28.375Z,1.77
2023-09-02T15:27:56.719Z,1.75
2023-09-02T15:30:28.056Z,1.60
2023-09-02T15:32:56.373Z,1.90
2023-09-02T15:35:24.006Z,1.77
2023-09-02T15:37:51.828Z,1.67
2023-09-02T15:40:29.434Z,1.65
2023-09-02T15:42:57.595Z,2.03
2023-09-02T15:45:25.437Z,1.80
2023-09-02T15:47:53.673Z,1.90
2023-09-02T15:50:21.719Z,1.80
2023-09-02T15:52:53.010Z,1.65
2023-09-02T15:55:21.048Z,1.60
2023-09-02T15:57:48.678Z,1.88
2023-09-02T16:00:16.513Z,1.85
2023-09-02T16:02:44.533Z,1.80
2023-09-02T16:05:12.265Z,1.80
2023-09-02T16:07:39.983Z,3.45
2023-09-02T16:10:07.732Z,1.90
2023-09-02T16:12:35.295Z,2.15
2023-09-02T16:15:03.034Z,1.75
2023-09-02T16:17:30.643Z,1.98
2023-09-02T16:19:58.278Z,1.65
2023-09-02T16:22:25.948Z,2.28
2023-09-02T16:24:54.745Z,2.70
2023-09-02T16:27:22.406Z,2.80
2023-09-02T16:29:49.981Z,2.58
2023-09-02T16:32:17.618Z,1.95
2023-09-02T16:34:46.252Z,1.80
2023-09-02T16:37:16.472Z,1.98
2023-09-02T16:39:44.970Z,1.70
2023-09-02T16:42:12.719Z,2.15
2023-09-02T16:44:40.361Z,2.00
2023-09-02T16:47:07.921Z,2.00
2023-09-02T16:49:36.881Z,1.90
2023-09-02T16:52:05.660Z,2.00
2023-09-02T16:54:33.375Z,1.85
2023-09-02T16:57:01.180Z,1.90
2023-09-02T16:59:29.810Z,1.88
2023-09-02T17:01:58.199Z,2.03
2023-09-02T17:04:25.839Z,1.85
2023-09-02T17:06:53.427Z,2.10
2023-09-02T17:09:21.713Z,1.80
2023-09-02T17:11:49.426Z,1.73
2023-09-02T17:14:17.370Z,1.73
2023-09-02T17:16:48.808Z,1.60
2023-09-02T17:19:18.588Z,2.03
2023-09-02T17:21:46.575Z,1.70
2023-09-02T17:24:18.152Z,1.83
2023-09-02T17:26:45.902Z,2.10
2023-09-02T17:29:15.605Z,1.92
2023-09-02T17:31:43.370Z,1.85
2023-09-02T17:34:10.962Z,1.92
2023-09-02T17:36:38.551Z,2.55
2023-09-02T17:39:06.172Z,1.92
2023-09-02T17:41:33.795Z,1.90
2023-09-02T17:44:01.474Z,2.25
2023-09-02T17:46:29.123Z,2.00
2023-09-02T17:48:56.716Z,2.10
2023-09-02T17:51:24.296Z,2.10
2023-09-02T17:53:52.002Z,2.13
2023-09-02T17:56:19.615Z,2.10
2023-09-02T17:58:48.575Z,2.03
2023-09-02T18:01:16.164Z,2.10
2023-09-02T18:03:43.856Z,2.00
2023-09-02T18:06:11.433Z,2.20
2023-09-02T18:08:55.686Z,2.20
2023-09-02T18:11:25.322Z,2.20
2023-09-02T18:13:52.902Z,2.20
2023-09-02T18:16:20.508Z,2.30
2023-09-02T18:18:48.091Z,2.40
2023-09-02T18:21:15.643Z,2.63
2023-09-02T18:23:43.199Z,2.53
2023-09-02T18:26:10.753Z,2.33
2023-09-02T18:28:38.321Z,2.30
2023-09-02T18:31:05.963Z,2.35
2023-09-02T18:33:33.582Z,2.40
2023-09-02T18:36:01.178Z,2.35
2023-09-02T18:38:29.509Z,2.30
2023-09-02T18:40:57.065Z,2.40
2023-09-02T18:43:24.634Z,2.70
2023-09-02T18:45:52.305Z,2.83
2023-09-02T18:48:20.030Z,2.17
2023-09-02T18:50:47.840Z,3.05
2023-09-02T18:53:15.401Z,2.67
2023-09-02T18:55:43.013Z,2.53
2023-09-02T18:58:11.904Z,2.50
2023-09-02T19:00:39.791Z,2.97
2023-09-02T19:03:07.526Z,2.40
2023-09-02T19:05:35.352Z,2.55
2023-09-02T19:08:02.915Z,2.80
2023-09-02T19:10:30.463Z,2.83
2023-09-02T19:12:58.072Z,3.03
2023-09-02T19:15:25.639Z,2.85
2023-09-02T19:17:53.657Z,3.70
2023-09-02T19:20:21.358Z,3.20
2023-09-02T19:22:48.950Z,3.13
2023-09-02T19:25:17.749Z,3.15
2023-09-02T19:27:45.972Z,3.60
2023-09-02T19:30:14.648Z,4.45
2023-09-02T19:32:42.272Z,5.25
2023-09-02T19:35:13.873Z,5.22
2023-09-02T19:37:45.031Z,4.15
2023-09-02T19:40:17.885Z,4.93
2023-09-02T19:42:49.380Z,4.20
2023-09-02T19:45:17.389Z,4.18
2023-09-02T19:47:44.990Z,4.32
2023-09-02T19:50:12.561Z,4.22
2023-09-02T19:52:40.289Z,4.15
2023-09-02T19:55:08.199Z,3.88
2023-09-02T19:57:35.839Z,4.40
2023-09-02T20:00:03.412Z,4.80
2023-09-02T20:02:39.164Z,4.50
2023-09-02T20:05:07.066Z,4.57
2023-09-02T20:07:34.712Z,4.50
2023-09-02T20:10:02.373Z,4.85
2023-09-02T20:12:30.643Z,5.38
2023-09-02T20:14:58.348Z,5.28
2023-09-02T20:17:26.071Z,5.63
2023-09-02T20:19:53.700Z,4.70
2023-09-02T20:22:21.347Z,4.93
2023-09-02T20:24:48.943Z,4.97
2023-09-02T20:27:19.547Z,4.40
2023-09-02T20:29:47.240Z,5.03
2023-09-02T20:32:14.844Z,4.90
2023-09-02T20:34:42.513Z,4.70
2023-09-02T20:37:10.089Z,4.82
2023-09-02T20:39:37.655Z,4.40
2023-09-02T20:42:06.158Z,4.45
2023-09-02T20:44:33.735Z,4.78
2023-09-02T20:47:01.295Z,5.65
2023-09-02T20:49:28.873Z,4.93
2023-09-02T20:51:56.706Z,6.65
2023-09-02T20:54:24.583Z,7.35
2023-09-02T20:56:52.309Z,7.93
2023-09-02T20:59:19.888Z,6.95
2023-09-02T21:01:47.534Z,7.65
2023-09-02T21:04:17.701Z,8.63
2023-09-02T21:06:45.849Z,8.18
2023-09-02T21:09:13.641Z,8.32
2023-09-02T21:11:41.287Z,7.70
2023-09-02T21:14:08.841Z,7.85
2023-09-02T21:16:36.474Z,8.35
2023-09-02T21:19:04.062Z,6.70
2023-09-02T21:21:31.730Z,7.15
2023-09-02T21:24:03.988Z,7.85
2023-09-02T21:26:31.677Z,7.43
2023-09-02T21:28:59.480Z,6.90
2023-09-02T21:31:27.176Z,7.63
2023-09-02T21:33:54.951Z,6.97
2023-09-02T21:36:22.583Z,7.10
2023-09-02T21:38:50.535Z,7.18
2023-09-02T21:41:18.144Z,7.25
2023-09-02T21:43:45.786Z,6.60
2023-09-02T21:46:14.853Z,6.82
2023-09-02T21:48:42.491Z,6.70
2023-09-02T21:51:11.455Z,6.03
2023-09-02T21:53:43.091Z,6.57
2023-09-02T21:56:11.393Z,6.72
2023-09-02T21:58:41.311Z,6.05
2023-09-02T22:01:09.926Z,6.47
2023-09-02T22:03:38.006Z,6.53
2023-09-02T22:06:12.791Z,6.82
2023-09-02T22:08:41.489Z,5.82
2023-09-02T22:11:09.179Z,6.68
2023-09-02T22:13:37.014Z,6.28
2023-09-02T22:16:05.133Z,6.07
2023-09-02T22:18:32.860Z,5.80
2023-09-02T22:21:01.056Z,6.63
2023-09-02T22:23:29.630Z,5.93
2023-09-02T22:26:04.364Z,6.00
2023-09-02T22:28:33.146Z,6.35
2023-09-02T22:31:00.907Z,6.07
2023-09-02T22:33:29.505Z,5.80
2023-09-02T22:35:57.510Z,6.20
2023-09-02T22:38:37.575Z,6.38
2023-09-02T22:41:12.983Z,6.00
2023-09-02T22:43:40.641Z,6.55
2023-09-02T22:46:09.077Z,6.72
2023-09-02T22:48:36.851Z,6.13
2023-09-02T22:51:04.871Z,6.50
2023-09-02T22:53:32.442Z,5.35
2023-09-02T22:56:00.280Z,6.35
2023-09-02T22:58:27.876Z,6.25
2023-09-02T23:00:55.518Z,5.90
2023-09-02T23:03:23.249Z,6.38
2023-09-02T23:05:50.916Z,5.15
2023-09-02T23:08:18.471Z,5.70
2023-09-02T23:10:46.229Z,5.97
2023-09-02T23:13:13.797Z,6.18
2023-09-02T23:15:41.360Z,5.55
2023-09-02T23:18:11.264Z,5.15
2023-09-02T23:20:40.605Z,5.57
2023-09-02T23:23:08.212Z,5.82
2023-09-02T23:25:35.783Z,6.20
2023-09-02T23:28:03.330Z,6.22
2023-09-02T23:30:30.899Z,6.47
2023-09-02T23:32:59.368Z,5.72
2023-09-02T23:35:26.991Z,6.15
2023-09-02T23:37:54.529Z,6.15
2023-09-02T23:40:22.193Z,5.95
2023-09-02T23:42:49.806Z,5.93
2023-09-02T23:45:17.615Z,6.45
2023-09-02T23:47:45.337Z,5.82
2023-09-02T23:50:12.977Z,5.90
2023-09-02T23:52:40.598Z,6.03
2023-09-02T23:55:08.412Z,5.85
2023-09-02T23:57:35.992Z,6.15
